sensor_id;sensor_type;location;lat;lon;timestamp;P1;durP1;ratioP1;P2;durP2;ratioP2
70332;SDS011;57747;43.548;-5.704;2023-06-22T00:00:29;5.65;;;2.63;;
70332;SDS011;57747;43.548;-5.704;2023-06-22T00:02:57;6.68;;;2.70;;
70332;SDS011;57747;43.548;-5.704;2023-06-22T00:05:24;5.68;;;2.05;;
70332;SDS011;57747;43.548;-5.704;2023-06-22T00:07:50;8.27;;;2.95;;
70332;SDS011;57747;43.548;-5.704;2023-06-22T00:10:15;6.13;;;2.53;;
70332;SDS011;57747;43.548;-5.704;2023-06-22T00:12:40;5.78;;;2.70;;
70332;SDS011;57747;43.548;-5.704;2023-06-22T00:15:06;9.38;;;3.25;;
70332;SDS011;57747;43.548;-5.704;2023-06-22T00:17:31;12.70;;;3.30;;
70332;SDS011;57747;43.548;-5.704;2023-06-22T00:19:57;7.35;;;3.40;;
70332;SDS011;57747;43.548;-5.704;2023-06-22T00:22:24;8.80;;;3.20;;
70332;SDS011;57747;43.548;-5.704;2023-06-22T00:24:56;6.68;;;3.13;;
70332;SDS011;57747;43.548;-5.704;2023-06-22T00:27:21;7.72;;;2.97;;
70332;SDS011;57747;43.548;-5.704;2023-06-22T00:29:46;5.90;;;3.35;;
70332;SDS011;57747;43.548;-5.704;2023-06-22T00:32:12;13.15;;;3.60;;
70332;SDS011;57747;43.548;-5.704;2023-06-22T00:34:37;7.85;;;3.60;;
70332;SDS011;57747;43.548;-5.704;2023-06-22T00:37:02;7.70;;;3.40;;
70332;SDS011;57747;43.548;-5.704;2023-06-22T00:39:28;8.13;;;3.40;;
70332;SDS011;57747;43.548;-5.704;2023-06-22T00:41:53;6.50;;;3.03;;
70332;SDS011;57747;43.548;-5.704;2023-06-22T00:44:19;5.53;;;3.10;;
70332;SDS011;57747;43.548;-5.704;2023-06-22T00:46:45;7.28;;;3.78;;
70332;SDS011;57747;43.548;-5.704;2023-06-22T00:49:10;7.50;;;3.47;;
70332;SDS011;57747;43.548;-5.704;2023-06-22T00:51:41;6.78;;;3.33;;
70332;SDS011;57747;43.548;-5.704;2023-06-22T00:54:15;8.38;;;2.90;;
70332;SDS011;57747;43.548;-5.704;2023-06-22T00:56:40;8.48;;;3.00;;
70332;SDS011;57747;43.548;-5.704;2023-06-22T00:59:09;4.22;;;2.95;;
70332;SDS011;57747;43.548;-5.704;2023-06-22T01:01:39;5.70;;;2.72;;
70332;SDS011;57747;43.548;-5.704;2023-06-22T01:04:07;9.98;;;3.47;;
70332;SDS011;57747;43.548;-5.704;2023-06-22T01:06:35;5.85;;;3.22;;
70332;SDS011;57747;43.548;-5.704;2023-06-22T01:09:06;8.77;;;3.13;;
70332;SDS011;57747;43.548;-5.704;2023-06-22T01:11:37;4.82;;;3.25;;
70332;SDS011;57747;43.548;-5.704;2023-06-22T01:14:06;7.95;;;2.58;;
70332;SDS011;57747;43.548;-5.704;2023-06-22T01:16:35;4.93;;;2.50;;
70332;SDS011;57747;43.548;-5.704;2023-06-22T01:19:01;10.98;;;3.60;;
70332;SDS011;57747;43.548;-5.704;2023-06-22T01:21:29;5.80;;;3.47;;
70332;SDS011;57747;43.548;-5.704;2023-06-22T01:24:08;7.28;;;3.15;;
70332;SDS011;57747;43.548;-5.704;2023-06-22T01:26:42;5.30;;;3.15;;
70332;SDS011;57747;43.548;-5.704;2023-06-22T01:29:09;10.40;;;3.40;;
70332;SDS011;57747;43.548;-5.704;2023-06-22T01:31:37;10.15;;;4.05;;
70332;SDS011;57747;43.548;-5.704;2023-06-22T01:34:03;9.63;;;3.42;;
70332;SDS011;57747;43.548;-5.704;2023-06-22T01:36:29;12.50;;;3.65;;
70332;SDS011;57747;43.548;-5.704;2023-06-22T01:38:55;11.68;;;3.85;;
70332;SDS011;57747;43.548;-5.704;2023-06-22T01:41:21;9.30;;;4.07;;
70332;SDS011;57747;43.548;-5.704;2023-06-22T01:43:47;12.00;;;3.13;;
70332;SDS011;57747;43.548;-5.704;2023-06-22T01:46:13;4.57;;;3.00;;
70332;SDS011;57747;43.548;-5.704;2023-06-22T01:48:39;9.00;;;3.30;;
70332;SDS011;57747;43.548;-5.704;2023-06-22T01:51:05;9.55;;;3.72;;
70332;SDS011;57747;43.548;-5.704;2023-06-22T01:53:30;9.35;;;3.78;;
70332;SDS011;57747;43.548;-5.704;2023-06-22T01:55:58;3.58;;;2.65;;
70332;SDS011;57747;43.548;-5.704;2023-06-22T01:58:25;8.73;;;3.25;;
70332;SDS011;57747;43.548;-5.704;2023-06-22T02:01:10;5.45;;;2.95;;
70332;SDS011;57747;43.548;-5.704;2023-06-22T02:03:43;6.38;;;2.63;;
70332;SDS011;57747;43.548;-5.704;2023-06-22T02:06:23;4.65;;;2.58;;
70332;SDS011;57747;43.548;-5.704;2023-06-22T02:08:51;6.80;;;2.45;;
70332;SDS011;57747;43.548;-5.704;2023-06-22T02:11:19;6.13;;;2.42;;
70332;SDS011;57747;43.548;-5.704;2023-06-22T02:13:45;8.82;;;3.05;;
70332;SDS011;57747;43.548;-5.704;2023-06-22T02:16:11;7.25;;;2.63;;
70332;SDS011;57747;43.548;-5.704;2023-06-22T02:18:37;10.93;;;3.05;;
70332;SDS011;57747;43.548;-5.704;2023-06-22T02:21:02;7.32;;;2.47;;
70332;SDS011;57747;43.548;-5.704;2023-06-22T02:23:28;11.48;;;3.03;;
70332;SDS011;57747;43.548;-5.704;2023-06-22T02:25:53;5.80;;;2.60;;
70332;SDS011;57747;43.548;-5.704;2023-06-22T02:28:19;7.60;;;2.90;;
70332;SDS011;57747;43.548;-5.704;2023-06-22T02:30:44;6.20;;;2.60;;
70332;SDS011;57747;43.548;-5.704;2023-06-22T02:33:09;7.68;;;2.67;;
70332;SDS011;57747;43.548;-5.704;2023-06-22T02:35:35;6.68;;;3.22;;
70332;SDS011;57747;43.548;-5.704;2023-06-22T02:38:01;8.27;;;3.00;;
70332;SDS011;57747;43.548;-5.704;2023-06-22T02:40:27;7.20;;;3.40;;
70332;SDS011;57747;43.548;-5.704;2023-06-22T02:42:52;10.05;;;3.28;;
70332;SDS011;57747;43.548;-5.704;2023-06-22T02:45:17;7.32;;;2.85;;
70332;SDS011;57747;43.548;-5.704;2023-06-22T02:47:46;6.20;;;2.80;;
70332;SDS011;57747;43.548;-5.704;2023-06-22T02:50:13;5.10;;;2.80;;
70332;SDS011;57747;43.548;-5.704;2023-06-22T02:52:38;4.72;;;2.30;;
70332;SDS011;57747;43.548;-5.704;2023-06-22T02:55:04;3.47;;;2.08;;
70332;SDS011;57747;43.548;-5.704;2023-06-22T02:57:30;2.55;;;2.13;;
70332;SDS011;57747;43.548;-5.704;2023-06-22T02:59:55;5.03;;;2.13;;
70332;SDS011;57747;43.548;-5.704;2023-06-22T03:02:20;3.08;;;1.90;;
70332;SDS011;57747;43.548;-5.704;2023-06-22T03:04:46;3.50;;;2.00;;
70332;SDS011;57747;43.548;-5.704;2023-06-22T03:07:14;3.20;;;2.05;;
70332;SDS011;57747;43.548;-5.704;2023-06-22T03:09:39;3.35;;;1.80;;
70332;SDS011;57747;43.548;-5.704;2023-06-22T03:12:07;4.68;;;2.00;;
70332;SDS011;57747;43.548;-5.704;2023-06-22T03:14:32;2.88;;;1.90;;
70332;SDS011;57747;43.548;-5.704;2023-06-22T03:16:58;3.60;;;2.00;;
70332;SDS011;57747;43.548;-5.704;2023-06-22T03:19:28;4.32;;;2.15;;
70332;SDS011;57747;43.548;-5.704;2023-06-22T03:21:56;4.90;;;2.20;;
70332;SDS011;57747;43.548;-5.704;2023-06-22T03:24:21;4.93;;;2.05;;
70332;SDS011;57747;43.548;-5.704;2023-06-22T03:26:47;3.75;;;2.25;;
70332;SDS011;57747;43.548;-5.704;2023-06-22T03:29:12;2.72;;;1.88;;
70332;SDS011;57747;43.548;-5.704;2023-06-22T03:31:40;4.25;;;2.03;;
70332;SDS011;57747;43.548;-5.704;2023-06-22T03:34:06;4.95;;;1.90;;
70332;SDS011;57747;43.548;-5.704;2023-06-22T03:36:31;3.08;;;2.10;;
70332;SDS011;57747;43.548;-5.704;2023-06-22T03:38:56;4.18;;;2.17;;
70332;SDS011;57747;43.548;-5.704;2023-06-22T03:41:25;3.40;;;2.00;;
70332;SDS011;57747;43.548;-5.704;2023-06-22T03:43:52;4.65;;;2.22;;
70332;SDS011;57747;43.548;-5.704;2023-06-22T03:46:18;2.85;;;1.90;;
70332;SDS011;57747;43.548;-5.704;2023-06-22T03:48:44;2.80;;;1.90;;
70332;SDS011;57747;43.548;-5.704;2023-06-22T03:51:12;4.15;;;2.30;;
70332;SDS011;57747;43.548;-5.704;2023-06-22T03:53:38;4.18;;;2.40;;
70332;SDS011;57747;43.548;-5.704;2023-06-22T03:56:03;3.58;;;2.50;;
70332;SDS011;57747;43.548;-5.704;2023-06-22T03:58:28;3.28;;;2.25;;
70332;SDS011;57747;43.548;-5.704;2023-06-22T04:00:57;4.18;;;2.33;;
70332;SDS011;57747;43.548;-5.704;2023-06-22T04:03:25;5.18;;;1.92;;
70332;SDS011;57747;43.548;-5.704;2023-06-22T04:05:51;4.32;;;2.50;;
70332;SDS011;57747;43.548;-5.704;2023-06-22T04:08:16;5.32;;;2.40;;
70332;SDS011;57747;43.548;-5.704;2023-06-22T04:10:42;3.08;;;2.20;;
70332;SDS011;57747;43.548;-5.704;2023-06-22T04:13:07;7.75;;;2.45;;
70332;SDS011;57747;43.548;-5.704;2023-06-22T04:15:32;5.85;;;2.42;;
70332;SDS011;57747;43.548;-5.704;2023-06-22T04:17:58;8.63;;;2.30;;
70332;SDS011;57747;43.548;-5.704;2023-06-22T04:20:25;3.72;;;2.20;;
70332;SDS011;57747;43.548;-5.704;2023-06-22T04:22:52;3.08;;;2.00;;
70332;SDS011;57747;43.548;-5.704;2023-06-22T04:25:17;4.40;;;2.22;;
70332;SDS011;57747;43.548;-5.704;2023-06-22T04:27:43;5.72;;;2.22;;
70332;SDS011;57747;43.548;-5.704;2023-06-22T04:30:08;3.55;;;2.13;;
70332;SDS011;57747;43.548;-5.704;2023-06-22T04:32:34;8.75;;;2.40;;
70332;SDS011;57747;43.548;-5.704;2023-06-22T04:35:04;3.60;;;2.20;;
70332;SDS011;57747;43.548;-5.704;2023-06-22T04:37:33;6.30;;;3.30;;
70332;SDS011;57747;43.548;-5.704;2023-06-22T04:39:59;6.78;;;3.58;;
70332;SDS011;57747;43.548;-5.704;2023-06-22T04:42:27;8.70;;;3.28;;
70332;SDS011;57747;43.548;-5.704;2023-06-22T04:44:53;3.20;;;2.30;;
70332;SDS011;57747;43.548;-5.704;2023-06-22T04:47:18;2.92;;;2.00;;
70332;SDS011;57747;43.548;-5.704;2023-06-22T04:49:43;3.53;;;2.50;;
70332;SDS011;57747;43.548;-5.704;2023-06-22T04:52:10;3.22;;;1.90;;
70332;SDS011;57747;43.548;-5.704;2023-06-22T04:54:36;3.30;;;2.17;;
70332;SDS011;57747;43.548;-5.704;2023-06-22T04:57:02;2.70;;;1.60;;
70332;SDS011;57747;43.548;-5.704;2023-06-22T04:59:31;3.00;;;2.08;;
70332;SDS011;57747;43.548;-5.704;2023-06-22T05:02:00;2.53;;;1.83;;
70332;SDS011;57747;43.548;-5.704;2023-06-22T05:04:27;4.10;;;2.15;;
70332;SDS011;57747;43.548;-5.704;2023-06-22T05:06:53;4.57;;;1.85;;
70332;SDS011;57747;43.548;-5.704;2023-06-22T05:09:21;3.50;;;2.00;;
70332;SDS011;57747;43.548;-5.704;2023-06-22T05:11:49;9.80;;;2.20;;
70332;SDS011;57747;43.548;-5.704;2023-06-22T05:14:15;4.50;;;2.05;;
70332;SDS011;57747;43.548;-5.704;2023-06-22T05:16:41;2.70;;;1.80;;
70332;SDS011;57747;43.548;-5.704;2023-06-22T05:19:11;4.60;;;2.00;;
70332;SDS011;57747;43.548;-5.704;2023-06-22T05:21:37;2.13;;;1.70;;
70332;SDS011;57747;43.548;-5.704;2023-06-22T05:24:02;4.38;;;2.25;;
70332;SDS011;57747;43.548;-5.704;2023-06-22T05:26:31;4.13;;;1.98;;
70332;SDS011;57747;43.548;-5.704;2023-06-22T05:28:58;5.55;;;1.83;;
70332;SDS011;57747;43.548;-5.704;2023-06-22T05:31:23;4.07;;;1.92;;
70332;SDS011;57747;43.548;-5.704;2023-06-22T05:33:52;3.10;;;1.98;;
70332;SDS011;57747;43.548;-5.704;2023-06-22T05:36:20;3.08;;;1.83;;
70332;SDS011;57747;43.548;-5.704;2023-06-22T05:38:46;3.35;;;1.95;;
70332;SDS011;57747;43.548;-5.704;2023-06-22T05:41:11;2.63;;;1.95;;
70332;SDS011;57747;43.548;-5.704;2023-06-22T05:43:37;2.53;;;1.70;;
70332;SDS011;57747;43.548;-5.704;2023-06-22T05:46:03;5.30;;;2.05;;
70332;SDS011;57747;43.548;-5.704;2023-06-22T05:48:28;2.85;;;1.60;;
70332;SDS011;57747;43.548;-5.704;2023-06-22T05:50:54;1.98;;;1.63;;
70332;SDS011;57747;43.548;-5.704;2023-06-22T05:53:19;2.22;;;1.50;;
70332;SDS011;57747;43.548;-5.704;2023-06-22T05:55:45;2.13;;;1.55;;
70332;SDS011;57747;43.548;-5.704;2023-06-22T05:58:10;3.60;;;1.95;;
70332;SDS011;57747;43.548;-5.704;2023-06-22T06:00:35;6.72;;;1.60;;
70332;SDS011;57747;43.548;-5.704;2023-06-22T06:03:01;2.38;;;1.80;;
70332;SDS011;57747;43.548;-5.704;2023-06-22T06:05:32;2.88;;;1.73;;
70332;SDS011;57747;43.548;-5.704;2023-06-22T06:07:59;3.28;;;1.70;;
70332;SDS011;57747;43.548;-5.704;2023-06-22T06:10:24;4.70;;;1.70;;
70332;SDS011;57747;43.548;-5.704;2023-06-22T06:12:50;2.88;;;1.67;;
70332;SDS011;57747;43.548;-5.704;2023-06-22T06:15:21;1.95;;;1.60;;
70332;SDS011;57747;43.548;-5.704;2023-06-22T06:17:50;4.35;;;1.80;;
70332;SDS011;57747;43.548;-5.704;2023-06-22T06:20:17;4.72;;;2.08;;
70332;SDS011;57747;43.548;-5.704;2023-06-22T06:22:43;8.20;;;2.03;;
70332;SDS011;57747;43.548;-5.704;2023-06-22T06:25:08;3.70;;;1.88;;
70332;SDS011;57747;43.548;-5.704;2023-06-22T06:27:34;6.15;;;2.00;;
70332;SDS011;57747;43.548;-5.704;2023-06-22T06:30:02;4.65;;;1.85;;
70332;SDS011;57747;43.548;-5.704;2023-06-22T06:32:32;2.38;;;1.90;;
70332;SDS011;57747;43.548;-5.704;2023-06-22T06:34:57;4.43;;;2.08;;
70332;SDS011;57747;43.548;-5.704;2023-06-22T06:37:22;3.65;;;2.22;;
70332;SDS011;57747;43.548;-5.704;2023-06-22T06:39:48;4.60;;;2.33;;
70332;SDS011;57747;43.548;-5.704;2023-06-22T06:42:13;3.60;;;1.90;;
70332;SDS011;57747;43.548;-5.704;2023-06-22T06:44:38;4.82;;;2.00;;
70332;SDS011;57747;43.548;-5.704;2023-06-22T06:47:04;4.22;;;2.28;;
70332;SDS011;57747;43.548;-5.704;2023-06-22T06:49:29;5.75;;;1.90;;
70332;SDS011;57747;43.548;-5.704;2023-06-22T06:51:55;8.15;;;1.85;;
70332;SDS011;57747;43.548;-5.704;2023-06-22T06:54:21;3.25;;;1.92;;
70332;SDS011;57747;43.548;-5.704;2023-06-22T06:56:46;3.00;;;1.85;;
70332;SDS011;57747;43.548;-5.704;2023-06-22T06:59:13;4.15;;;1.90;;
70332;SDS011;57747;43.548;-5.704;2023-06-22T07:01:38;3.20;;;1.80;;
70332;SDS011;57747;43.548;-5.704;2023-06-22T07:04:07;4.93;;;1.73;;
70332;SDS011;57747;43.548;-5.704;2023-06-22T07:06:32;5.40;;;2.35;;
70332;SDS011;57747;43.548;-5.704;2023-06-22T07:08:59;2.92;;;1.85;;
70332;SDS011;57747;43.548;-5.704;2023-06-22T07:11:28;5.55;;;2.22;;
70332;SDS011;57747;43.548;-5.704;2023-06-22T07:13:56;4.10;;;1.98;;
70332;SDS011;57747;43.548;-5.704;2023-06-22T07:16:21;7.93;;;2.40;;
70332;SDS011;57747;43.548;-5.704;2023-06-22T07:18:48;9.00;;;3.78;;
70332;SDS011;57747;43.548;-5.704;2023-06-22T07:21:13;7.95;;;3.70;;
70332;SDS011;57747;43.548;-5.704;2023-06-22T07:23:38;5.20;;;3.10;;
70332;SDS011;57747;43.548;-5.704;2023-06-22T07:26:04;8.00;;;3.35;;
70332;SDS011;57747;43.548;-5.704;2023-06-22T07:28:31;7.80;;;4.00;;
70332;SDS011;57747;43.548;-5.704;2023-06-22T07:31:06;8.27;;;3.78;;
70332;SDS011;57747;43.548;-5.704;2023-06-22T07:33:34;13.48;;;5.07;;
70332;SDS011;57747;43.548;-5.704;2023-06-22T07:35:59;18.35;;;3.97;;
70332;SDS011;57747;43.548;-5.704;2023-06-22T07:38:25;11.95;;;3.83;;
70332;SDS011;57747;43.548;-5.704;2023-06-22T07:40:50;13.40;;;4.15;;
70332;SDS011;57747;43.548;-5.704;2023-06-22T07:43:18;8.05;;;3.80;;
70332;SDS011;57747;43.548;-5.704;2023-06-22T07:45:48;13.63;;;4.47;;
70332;SDS011;57747;43.548;-5.704;2023-06-22T07:48:17;12.60;;;3.78;;
70332;SDS011;57747;43.548;-5.704;2023-06-22T07:50:42;9.00;;;3.85;;
70332;SDS011;57747;43.548;-5.704;2023-06-22T07:53:10;7.35;;;3.53;;
70332;SDS011;57747;43.548;-5.704;2023-06-22T07:55:36;7.35;;;3.15;;
70332;SDS011;57747;43.548;-5.704;2023-06-22T07:58:01;11.13;;;3.00;;
70332;SDS011;57747;43.548;-5.704;2023-06-22T08:00:29;16.60;;;3.70;;
70332;SDS011;57747;43.548;-5.704;2023-06-22T08:02:57;7.15;;;2.95;;
70332;SDS011;57747;43.548;-5.704;2023-06-22T08:05:23;8.10;;;3.13;;
70332;SDS011;57747;43.548;-5.704;2023-06-22T08:07:49;8.98;;;3.00;;
70332;SDS011;57747;43.548;-5.704;2023-06-22T08:10:15;6.75;;;2.85;;
70332;SDS011;57747;43.548;-5.704;2023-06-22T08:12:40;12.00;;;6.60;;
70332;SDS011;57747;43.548;-5.704;2023-06-22T08:15:06;6.32;;;3.35;;
70332;SDS011;57747;43.548;-5.704;2023-06-22T08:17:32;11.00;;;3.13;;
70332;SDS011;57747;43.548;-5.704;2023-06-22T08:19:58;8.18;;;4.68;;
70332;SDS011;57747;43.548;-5.704;2023-06-22T08:22:23;3.55;;;2.13;;
70332;SDS011;57747;43.548;-5.704;2023-06-22T08:24:48;6.72;;;3.22;;
70332;SDS011;57747;43.548;-5.704;2023-06-22T08:27:14;5.60;;;2.08;;
70332;SDS011;57747;43.548;-5.704;2023-06-22T08:29:46;2.28;;;1.73;;
70332;SDS011;57747;43.548;-5.704;2023-06-22T08:32:12;2.90;;;1.58;;
70332;SDS011;57747;43.548;-5.704;2023-06-22T08:34:38;3.85;;;1.65;;
70332;SDS011;57747;43.548;-5.704;2023-06-22T08:37:09;3.05;;;1.88;;
70332;SDS011;57747;43.548;-5.704;2023-06-22T08:39:34;3.35;;;1.70;;
70332;SDS011;57747;43.548;-5.704;2023-06-22T08:42:02;5.63;;;2.08;;
70332;SDS011;57747;43.548;-5.704;2023-06-22T08:44:33;5.65;;;2.00;;
70332;SDS011;57747;43.548;-5.704;2023-06-22T08:46:59;3.42;;;2.20;;
70332;SDS011;57747;43.548;-5.704;2023-06-22T08:49:24;9.43;;;3.85;;
70332;SDS011;57747;43.548;-5.704;2023-06-22T08:51:49;12.40;;;6.93;;
70332;SDS011;57747;43.548;-5.704;2023-06-22T08:54:20;4.75;;;2.03;;
70332;SDS011;57747;43.548;-5.704;2023-06-22T08:56:49;5.97;;;2.88;;
70332;SDS011;57747;43.548;-5.704;2023-06-22T08:59:14;9.68;;;2.60;;
70332;SDS011;57747;43.548;-5.704;2023-06-22T09:01:40;2.47;;;1.80;;
70332;SDS011;57747;43.548;-5.704;2023-06-22T09:04:05;3.78;;;2.13;;
70332;SDS011;57747;43.548;-5.704;2023-06-22T09:06:32;3.53;;;1.50;;
70332;SDS011;57747;43.548;-5.704;2023-06-22T09:08:57;4.63;;;2.17;;
70332;SDS011;57747;43.548;-5.704;2023-06-22T09:11:26;10.68;;;2.97;;
70332;SDS011;57747;43.548;-5.704;2023-06-22T09:13:51;5.22;;;3.00;;
70332;SDS011;57747;43.548;-5.704;2023-06-22T09:19:18;9.73;;;3.50;;
70332;SDS011;57747;43.548;-5.704;2023-06-22T09:21:46;11.98;;;3.67;;
70332;SDS011;57747;43.548;-5.704;2023-06-22T09:24:14;12.07;;;3.30;;
70332;SDS011;57747;43.548;-5.704;2023-06-22T09:26:52;8.70;;;2.58;;
70332;SDS011;57747;43.548;-5.704;2023-06-22T09:29:20;8.90;;;2.33;;
70332;SDS011;57747;43.548;-5.704;2023-06-22T09:31:45;11.45;;;2.53;;
70332;SDS011;57747;43.548;-5.704;2023-06-22T09:34:11;8.55;;;2.35;;
70332;SDS011;57747;43.548;-5.704;2023-06-22T09:36:36;6.50;;;2.53;;
70332;SDS011;57747;43.548;-5.704;2023-06-22T09:39:02;6.18;;;1.70;;
70332;SDS011;57747;43.548;-5.704;2023-06-22T09:41:31;4.68;;;2.13;;
70332;SDS011;57747;43.548;-5.704;2023-06-22T09:43:56;6.07;;;2.00;;
70332;SDS011;57747;43.548;-5.704;2023-06-22T09:46:29;5.32;;;2.20;;
70332;SDS011;57747;43.548;-5.704;2023-06-22T09:49:03;5.43;;;2.20;;
70332;SDS011;57747;43.548;-5.704;2023-06-22T09:54:16;9.77;;;2.88;;
70332;SDS011;57747;43.548;-5.704;2023-06-22T09:56:44;8.10;;;2.80;;
70332;SDS011;57747;43.548;-5.704;2023-06-22T09:59:12;12.52;;;2.00;;
70332;SDS011;57747;43.548;-5.704;2023-06-22T10:01:55;6.45;;;2.38;;
70332;SDS011;57747;43.548;-5.704;2023-06-22T10:04:43;11.20;;;3.05;;
70332;SDS011;57747;43.548;-5.704;2023-06-22T10:07:08;6.05;;;2.85;;
70332;SDS011;57747;43.548;-5.704;2023-06-22T10:09:42;4.93;;;1.83;;
70332;SDS011;57747;43.548;-5.704;2023-06-22T10:12:07;2.75;;;1.50;;
70332;SDS011;57747;43.548;-5.704;2023-06-22T10:14:42;4.05;;;1.80;;
70332;SDS011;57747;43.548;-5.704;2023-06-22T10:17:13;4.28;;;1.60;;
70332;SDS011;57747;43.548;-5.704;2023-06-22T10:19:39;4.85;;;2.15;;
70332;SDS011;57747;43.548;-5.704;2023-06-22T10:22:06;4.18;;;1.83;;
70332;SDS011;57747;43.548;-5.704;2023-06-22T10:24:32;9.38;;;3.50;;
70332;SDS011;57747;43.548;-5.704;2023-06-22T10:29:48;9.93;;;3.05;;
70332;SDS011;57747;43.548;-5.704;2023-06-22T10:32:16;7.72;;;2.42;;
70332;SDS011;57747;43.548;-5.704;2023-06-22T10:34:42;6.32;;;2.38;;
70332;SDS011;57747;43.548;-5.704;2023-06-22T10:40:11;10.27;;;3.70;;
70332;SDS011;57747;43.548;-5.704;2023-06-22T10:42:44;10.70;;;3.38;;
70332;SDS011;57747;43.548;-5.704;2023-06-22T10:45:10;7.07;;;2.50;;
70332;SDS011;57747;43.548;-5.704;2023-06-22T10:47:36;6.72;;;2.90;;
70332;SDS011;57747;43.548;-5.704;2023-06-22T10:50:05;7.05;;;3.00;;
70332;SDS011;57747;43.548;-5.704;2023-06-22T10:52:49;11.88;;;4.07;;
70332;SDS011;57747;43.548;-5.704;2023-06-22T10:55:20;12.85;;;4.03;;
70332;SDS011;57747;43.548;-5.704;2023-06-22T10:57:45;14.85;;;4.45;;
70332;SDS011;57747;43.548;-5.704;2023-06-22T11:00:13;10.85;;;3.85;;
70332;SDS011;57747;43.548;-5.704;2023-06-22T11:02:38;7.20;;;3.00;;
70332;SDS011;57747;43.548;-5.704;2023-06-22T11:05:04;7.13;;;3.95;;
70332;SDS011;57747;43.548;-5.704;2023-06-22T11:07:32;6.85;;;2.83;;
70332;SDS011;57747;43.548;-5.704;2023-06-22T11:09:58;6.85;;;3.20;;
70332;SDS011;57747;43.548;-5.704;2023-06-22T11:12:23;5.45;;;2.92;;
70332;SDS011;57747;43.548;-5.704;2023-06-22T11:14:49;6.30;;;1.98;;
70332;SDS011;57747;43.548;-5.704;2023-06-22T11:17:16;2.67;;;1.58;;
70332;SDS011;57747;43.548;-5.704;2023-06-22T11:19:43;3.53;;;1.60;;
70332;SDS011;57747;43.548;-5.704;2023-06-22T11:22:09;5.63;;;1.50;;
70332;SDS011;57747;43.548;-5.704;2023-06-22T11:24:37;3.42;;;1.60;;
70332;SDS011;57747;43.548;-5.704;2023-06-22T11:27:02;2.22;;;1.40;;
70332;SDS011;57747;43.548;-5.704;2023-06-22T11:29:27;3.58;;;2.10;;
70332;SDS011;57747;43.548;-5.704;2023-06-22T11:31:53;3.92;;;1.85;;
70332;SDS011;57747;43.548;-5.704;2023-06-22T11:34:18;3.00;;;1.50;;
70332;SDS011;57747;43.548;-5.704;2023-06-22T11:36:44;3.95;;;1.83;;
70332;SDS011;57747;43.548;-5.704;2023-06-22T11:39:10;3.15;;;1.38;;
70332;SDS011;57747;43.548;-5.704;2023-06-22T11:41:36;3.53;;;1.55;;
70332;SDS011;57747;43.548;-5.704;2023-06-22T11:44:04;4.00;;;1.17;;
70332;SDS011;57747;43.548;-5.704;2023-06-22T11:46:29;2.17;;;1.45;;
70332;SDS011;57747;43.548;-5.704;2023-06-22T11:48:55;2.90;;;1.58;;
70332;SDS011;57747;43.548;-5.704;2023-06-22T11:51:20;2.80;;;1.33;;
70332;SDS011;57747;43.548;-5.704;2023-06-22T11:53:45;3.78;;;1.35;;
70332;SDS011;57747;43.548;-5.704;2023-06-22T11:56:14;3.30;;;1.25;;
70332;SDS011;57747;43.548;-5.704;2023-06-22T11:58:39;4.05;;;1.52;;
70332;SDS011;57747;43.548;-5.704;2023-06-22T12:01:07;2.72;;;1.55;;
70332;SDS011;57747;43.548;-5.704;2023-06-22T12:03:32;4.88;;;1.58;;
70332;SDS011;57747;43.548;-5.704;2023-06-22T12:05:59;2.15;;;1.40;;
70332;SDS011;57747;43.548;-5.704;2023-06-22T12:08:24;2.55;;;1.60;;
70332;SDS011;57747;43.548;-5.704;2023-06-22T12:10:55;3.42;;;1.30;;
70332;SDS011;57747;43.548;-5.704;2023-06-22T12:13:20;6.03;;;1.20;;
70332;SDS011;57747;43.548;-5.704;2023-06-22T12:15:46;4.22;;;1.63;;
70332;SDS011;57747;43.548;-5.704;2023-06-22T12:18:11;3.28;;;1.45;;
70332;SDS011;57747;43.548;-5.704;2023-06-22T12:20:39;2.33;;;1.27;;
70332;SDS011;57747;43.548;-5.704;2023-06-22T12:23:04;1.75;;;1.50;;
70332;SDS011;57747;43.548;-5.704;2023-06-22T12:25:29;2.75;;;1.25;;
70332;SDS011;57747;43.548;-5.704;2023-06-22T12:27:55;3.78;;;2.03;;
70332;SDS011;57747;43.548;-5.704;2023-06-22T12:30:20;3.58;;;1.50;;
70332;SDS011;57747;43.548;-5.704;2023-06-22T12:32:46;8.35;;;1.98;;
70332;SDS011;57747;43.548;-5.704;2023-06-22T12:35:11;2.75;;;1.45;;
70332;SDS011;57747;43.548;-5.704;2023-06-22T12:37:40;3.15;;;1.30;;
70332;SDS011;57747;43.548;-5.704;2023-06-22T12:40:08;2.83;;;1.40;;
70332;SDS011;57747;43.548;-5.704;2023-06-22T12:42:41;2.70;;;1.33;;
70332;SDS011;57747;43.548;-5.704;2023-06-22T12:45:07;2.05;;;1.48;;
70332;SDS011;57747;43.548;-5.704;2023-06-22T12:47:36;3.13;;;1.35;;
70332;SDS011;57747;43.548;-5.704;2023-06-22T12:50:01;3.53;;;1.48;;
70332;SDS011;57747;43.548;-5.704;2023-06-22T12:52:27;3.88;;;1.40;;
70332;SDS011;57747;43.548;-5.704;2023-06-22T12:54:52;2.08;;;1.30;;
70332;SDS011;57747;43.548;-5.704;2023-06-22T12:57:22;2.05;;;1.25;;
70332;SDS011;57747;43.548;-5.704;2023-06-22T12:59:48;3.55;;;1.45;;
70332;SDS011;57747;43.548;-5.704;2023-06-22T13:02:14;3.92;;;1.30;;
70332;SDS011;57747;43.548;-5.704;2023-06-22T13:04:39;7.13;;;1.50;;
70332;SDS011;57747;43.548;-5.704;2023-06-22T13:07:04;4.60;;;1.60;;
70332;SDS011;57747;43.548;-5.704;2023-06-22T13:09:30;2.50;;;1.42;;
70332;SDS011;57747;43.548;-5.704;2023-06-22T13:11:56;2.88;;;1.45;;
70332;SDS011;57747;43.548;-5.704;2023-06-22T13:14:23;2.60;;;1.60;;
70332;SDS011;57747;43.548;-5.704;2023-06-22T13:16:49;4.35;;;1.30;;
70332;SDS011;57747;43.548;-5.704;2023-06-22T13:19:14;2.42;;;1.42;;
70332;SDS011;57747;43.548;-5.704;2023-06-22T13:21:40;2.70;;;1.30;;
70332;SDS011;57747;43.548;-5.704;2023-06-22T13:24:05;3.97;;;1.60;;
70332;SDS011;57747;43.548;-5.704;2023-06-22T13:26:31;2.70;;;1.65;;
70332;SDS011;57747;43.548;-5.704;2023-06-22T13:28:56;1.73;;;1.30;;
70332;SDS011;57747;43.548;-5.704;2023-06-22T13:31:22;2.38;;;1.40;;
70332;SDS011;57747;43.548;-5.704;2023-06-22T13:33:50;3.90;;;1.80;;
70332;SDS011;57747;43.548;-5.704;2023-06-22T13:36:21;1.73;;;1.30;;
70332;SDS011;57747;43.548;-5.704;2023-06-22T13:38:48;3.03;;;1.40;;
70332;SDS011;57747;43.548;-5.704;2023-06-22T13:41:13;2.20;;;1.40;;
70332;SDS011;57747;43.548;-5.704;2023-06-22T13:43:38;2.40;;;1.33;;
70332;SDS011;57747;43.548;-5.704;2023-06-22T13:46:04;2.78;;;1.40;;
70332;SDS011;57747;43.548;-5.704;2023-06-22T13:48:29;2.97;;;1.60;;
70332;SDS011;57747;43.548;-5.704;2023-06-22T13:50:57;3.83;;;1.50;;
70332;SDS011;57747;43.548;-5.704;2023-06-22T13:53:24;2.15;;;1.45;;
70332;SDS011;57747;43.548;-5.704;2023-06-22T13:55:49;4.35;;;1.65;;
70332;SDS011;57747;43.548;-5.704;2023-06-22T13:58:15;2.90;;;1.70;;
70332;SDS011;57747;43.548;-5.704;2023-06-22T14:00:40;4.45;;;1.50;;
70332;SDS011;57747;43.548;-5.704;2023-06-22T14:03:06;3.50;;;1.50;;
70332;SDS011;57747;43.548;-5.704;2023-06-22T14:05:31;3.45;;;1.23;;
70332;SDS011;57747;43.548;-5.704;2023-06-22T14:07:56;2.40;;;1.40;;
70332;SDS011;57747;43.548;-5.704;2023-06-22T14:10:22;4.55;;;1.70;;
70332;SDS011;57747;43.548;-5.704;2023-06-22T14:12:47;3.30;;;1.75;;
70332;SDS011;57747;43.548;-5.704;2023-06-22T14:15:13;2.50;;;1.40;;
70332;SDS011;57747;43.548;-5.704;2023-06-22T14:17:40;4.65;;;1.77;;
70332;SDS011;57747;43.548;-5.704;2023-06-22T14:20:06;2.28;;;1.50;;
70332;SDS011;57747;43.548;-5.704;2023-06-22T14:22:33;2.88;;;1.52;;
70332;SDS011;57747;43.548;-5.704;2023-06-22T14:25:00;3.28;;;1.50;;
70332;SDS011;57747;43.548;-5.704;2023-06-22T14:27:26;3.58;;;1.73;;
70332;SDS011;57747;43.548;-5.704;2023-06-22T14:29:52;6.28;;;1.83;;
70332;SDS011;57747;43.548;-5.704;2023-06-22T14:32:17;3.22;;;1.83;;
70332;SDS011;57747;43.548;-5.704;2023-06-22T14:34:42;2.92;;;1.35;;
70332;SDS011;57747;43.548;-5.704;2023-06-22T14:37:08;4.43;;;1.40;;
70332;SDS011;57747;43.548;-5.704;2023-06-22T14:39:38;3.80;;;1.73;;
70332;SDS011;57747;43.548;-5.704;2023-06-22T14:42:04;3.58;;;1.50;;